Nearby METAR Reports

 

KBMG - Bloomington, Indiana, USA
Distance from station: SSE 11mi, 18km
Updated: Fri, 17-Aug-2018 9:53pm EDT
Partly cloudy
Partly cloudy
 Wind from calm
Wind: Calm
Temperature: 72°F , 22°C
Dew Point: 72°F , 22°C
Humidity: 100%
Barometer: 29.99 inHg , 1015.6 hPa
Clouds: Partly cloudy
Visibility: 10 miles , 16 km
Cloud details: Partly cloudy 11000 ft
2018/08/18 01:53 KBMG 180153Z AUTO 00000KT 10SM SCT110 22/22 A2999 RMK AO2 RAB04E16 SLP147 P0000 T02170217
KHUF - Terre Haute, Indiana, USA
Distance from station: WNW 34mi, 54km
Updated: Fri, 17-Aug-2018 9:53pm EDT
Partly cloudy
Partly cloudy
 Wind from calm
Wind: Calm
Temperature: 72°F , 22°C
Dew Point: 70°F , 21°C
Humidity: 94%
Barometer: 29.98 inHg , 1015.2 hPa
Clouds: Partly cloudy
Visibility: 10 miles , 16 km
Cloud details: Partly cloudy 11000 ft
2018/08/18 01:53 KHUF 180153Z 00000KT 10SM SCT110 22/21 A2998 RMK AO2 SLP147 T02170211
 
KIND - Indianapolis, Indiana, USA
Distance from station: NE 36mi, 58km
Updated: Fri, 17-Aug-2018 9:54pm EDT
Mostly cloudy
Mostly cloudy
 Wind from S
Wind: S 6 mph , 9 km/h
Temperature: 72°F , 22°C
Dew Point: 72°F , 22°C
Humidity: 100%
Barometer: 29.97 inHg , 1014.9 hPa
Clouds: Mostly cloudy
Visibility: 10 miles , 16 km
Cloud details: Partly cloudy 8000 ft
Mostly cloudy 10000 ft
Mostly cloudy 18000 ft
2018/08/18 01:54 KIND 180154Z 18005KT 10SM SCT080 BKN100 BKN180 22/22 A2997 RMK AO2 SLP144 T02220217
KBAK - Columbus/Balkala, Indiana, USA
Distance from station: E 43mi, 69km
Updated: Fri, 17-Aug-2018 9:45pm EDT
Mist, Overcast
Mist, Overcast
 Wind from calm
Wind: Calm
Temperature: 72°F , 22°C
Dew Point: 68°F , 20°C
Humidity: 88%
Barometer: 29.99 inHg , 1015.6 hPa
Summary: Mist
Clouds: Overcast
Visibility: 5 miles , 8 km
Cloud details: Overcast 4000 ft
2018/08/18 01:45 KBAK 180145Z 00000KT 5SM BR OVC040 22/20 A2999 RMK LAST
 
KEYE - Indianapolis, Indiana, USA
Distance from station: NNE 43mi, 69km
Updated: Fri, 17-Aug-2018 9:53pm EDT
Overcast
Overcast
 Wind from S
Wind: S 3 mph , 6 km/h
Temperature: 73°F , 23°C
Dew Point: 70°F , 21°C
Humidity: 89%
Barometer: 29.98 inHg , 1015.2 hPa
Clouds: Overcast
Visibility: 10 miles , 16 km
Cloud details: Mostly cloudy 9000 ft
Overcast 11000 ft
2018/08/18 01:53 KEYE 180153Z AUTO 19003KT 10SM BKN090 OVC110 23/21 A2998 RMK AO2 SLP145 T02280206
KDCY - Daviess County, Indiana, USA
Distance from station: SSW 47mi, 76km
Updated: Fri, 17-Aug-2018 10:35pm EDT
Rain, Overcast
Rain, Overcast
 Wind from W
Wind: W 10 mph , 17 km/h
Temperature: 73°F , 23°C
Dew Point: 72°F , 22°C
Humidity: 94%
Barometer: 30.00 inHg , 1015.9 hPa
Summary: Rain
Clouds: Overcast
Visibility: 10 miles , 16 km
Cloud details: Partly cloudy 3000 ft
Mostly cloudy 4300 ft
Overcast 5000 ft
2018/08/18 02:35 KDCY 180235Z AUTO 28009KT 10SM RA SCT030 BKN043 OVC050 23/22 A3000 RMK AO2 LTG DSNT SW AND W T02260215
 
KGEZ - Shelbyville, Indiana, USA
Distance from station: ENE 52mi, 83km
Updated: Fri, 17-Aug-2018 9:53pm EDT
Overcast
Overcast
 Wind from WSW
Wind: WSW 5 mph , 7 km/h
Temperature: 73°F , 23°C
Dew Point: 70°F , 21°C
Humidity: 89%
Barometer: 29.98 inHg , 1015.2 hPa
Clouds: Overcast
Visibility: 10 miles , 16 km
Cloud details: Overcast 9000 ft
2018/08/18 01:53 KGEZ 180153Z AUTO 24004KT 10SM OVC090 23/21 A2998 RMK AO2 SLP147 T02280211
KRSV - Robinson Muni, Illinois, USA
Distance from station: WSW 55mi, 88km
Updated: Fri, 17-Aug-2018 10:35pm EDT
Overcast
Overcast
 Wind from SSW
Wind: SSW 3 mph , 6 km/h
Temperature: 72°F , 22°C
Dew Point: 72°F , 22°C
Humidity: 100%
Barometer: 29.99 inHg , 1015.6 hPa
Clouds: Overcast
Visibility: 10 miles , 16 km
Cloud details: Overcast 10000 ft
2018/08/18 02:35 KRSV 180235Z AUTO 21003KT 10SM OVC100 22/22 A2999 RMK AO2 P0002 T02160216
 
KTYQ - Indianapolis Exc, Indiana, USA
Distance from station: NNE 56mi, 90km
Updated: Fri, 17-Aug-2018 10:35pm EDT
Mostly cloudy
Mostly cloudy
 Wind from calm
Wind: Calm
Temperature: 70°F , 21°C
Dew Point: 70°F , 21°C
Humidity: 100%
Barometer: 30.00 inHg , 1015.9 hPa
Clouds: Mostly cloudy
Visibility: 10 miles , 16 km
Cloud details: Mostly cloudy 11000 ft
2018/08/18 02:35 KTYQ 180235Z AUTO 00000KT 10SM BKN110 21/21 A3000 RMK AO2 T02050205
KMQJ - Indianapolis Reg, Indiana, USA
Distance from station: NE 57mi, 92km
Updated: Fri, 17-Aug-2018 10:37pm EDT
Overcast
Overcast
 Wind from calm
Wind: Calm
Temperature: 72°F , 22°C
Dew Point: 72°F , 22°C
Humidity: 100%
Barometer: 30.00 inHg , 1015.9 hPa
Clouds: Overcast
Visibility: 10 miles , 16 km
Cloud details: Overcast 10000 ft
2018/08/18 02:37 KMQJ 180237Z AUTO 00000KT 10SM OVC100 22/22 A3000 RMK AO1
 
KPRG - Paris, Illinois, USA
Distance from station: WNW 59mi, 94km
Updated: Fri, 17-Aug-2018 10:35pm EDT
Mist, Overcast
Mist, Overcast
 Wind from calm
Wind: Calm
Temperature: 72°F , 22°C
Dew Point: 72°F , 22°C
Humidity: 100%
Barometer: 29.99 inHg , 1015.6 hPa
Summary: Mist
Clouds: Overcast
Visibility: 5 miles , 8 km
Cloud details: Overcast 200 ft
2018/08/18 02:35 KPRG 180235Z AUTO 00000KT 5SM BR OVC002 22/22 A2999 RMK AO2 T02200215
KLWV - Lawrenceville, Illinois, USA
Distance from station: SW 61mi, 98km
Updated: Fri, 17-Aug-2018 10:30pm EDT
Overcast
Overcast
 Wind from SSE
Wind: SSE 3 mph , 6 km/h
Temperature: 73°F , 23°C
Dew Point: 70°F , 21°C
Humidity: 89%
Barometer: 29.98 inHg , 1015.2 hPa
Clouds: Overcast
Visibility: 10 miles , 16 km
Cloud details: Mostly cloudy 8000 ft
Overcast 10000 ft
2018/08/18 02:30 KLWV 180230Z AUTO 16003KT 10SM BKN080 OVC100 23/21 A2998 RMK AO2 LTG DSNT E AND SE RAE16 TSE07 P0002 T02280211
 
KAJG - Mount Carmel, Illinois, USA
Distance from station: SW 73mi, 117km
Updated: Fri, 17-Aug-2018 10:35pm EDT
Overcast
Overcast
 Wind from SSW
Wind: SSW 3 mph , 6 km/h
Temperature: 72°F , 22°C
Dew Point: 72°F , 22°C
Humidity: 100%
Barometer: 30.00 inHg , 1015.9 hPa
Clouds: Overcast
Visibility: 10 miles , 16 km
Cloud details: Partly cloudy 5500 ft
Partly cloudy 7000 ft
Overcast 9000 ft
2018/08/18 02:35 KAJG 180235Z AUTO 21003KT 10SM SCT055 SCT070 OVC090 22/22 A3000 RMK AO2 LTG DSNT E T02210217
KHNB - Huntingburg, Indiana, USA
Distance from station: S 74mi, 119km
Updated: Fri, 17-Aug-2018 9:56pm EDT
Mostly cloudy
Mostly cloudy
 Wind from S
Wind: S 3 mph , 6 km/h
Temperature: 73°F , 23°C
Dew Point: 72°F , 22°C
Humidity: 94%
Barometer: 29.99 inHg , 1015.6 hPa
Clouds: Mostly cloudy
Visibility: 10 miles , 16 km
Cloud details: Mostly cloudy 3200 ft
Mostly cloudy 8500 ft
2018/08/18 01:56 KHNB 180156Z AUTO 17003KT 10SM BKN032 BKN085 23/22 A2999 RMK AO2 SLP151 T02330222
 
KLAF - Lafayette, Indiana, USA
Distance from station: N 78mi, 126km
Updated: Fri, 17-Aug-2018 9:54pm EDT
Overcast
Overcast
 Wind from calm
Wind: Calm
Temperature: 72°F , 22°C
Dew Point: 72°F , 22°C
Humidity: 100%
Barometer: 29.97 inHg , 1014.9 hPa
Clouds: Overcast
Visibility: 10 miles , 16 km
Cloud details: Overcast 11000 ft
2018/08/18 01:54 KLAF 180154Z AUTO 00000KT 10SM OVC110 22/22 A2997 RMK AO2 SLP144 T02170217
KDNV - Danville, Illinois, USA
Distance from station: NW 79mi, 126km
Updated: Fri, 17-Aug-2018 10:35pm EDT
Clear
Clear
 Wind from calm
Wind: Calm
Temperature: 68°F , 20°C
Dew Point: 68°F , 20°C
Humidity: 100%
Barometer: 29.96 inHg , 1014.6 hPa
Clouds: Clear
Visibility: 10 miles , 16 km
2018/08/18 02:35 KDNV 180235Z AUTO 00000KT 10SM CLR 20/20 A2996 RMK AO2 T02000200 PWINO
 
KAID - Anderson Municip, Indiana, USA
Distance from station: NE 81mi, 130km
Updated: Fri, 17-Aug-2018 10:55pm EDT
Clear
Clear
 Wind from calm
Wind: Calm
Temperature: 72°F , 22°C
Dew Point: 70°F , 21°C
Humidity: 94%
Barometer: 30.00 inHg , 1015.9 hPa
Clouds: Clear
Visibility: 10 miles , 16 km
2018/08/18 02:55 KAID 180255Z AUTO 00000KT 10SM CLR 22/21 A3000 RMK AO2 T02210210
KMTO - Mattoon/Charlest, Illinois, USA
Distance from station: W 85mi, 136km
Updated: Fri, 17-Aug-2018 9:53pm EDT
Clear
Clear
 Wind from calm
Wind: Calm
Temperature: 72°F , 22°C
Dew Point: 70°F , 21°C
Humidity: 94%
Barometer: 29.96 inHg , 1014.6 hPa
Clouds: Clear
Visibility: 9 miles , 14 km
2018/08/18 01:53 KMTO 180153Z AUTO 00000KT 9SM CLR 22/21 A2996 RMK AO2 SLP141 T02220211
 
KOLY - Olney-Noble, Illinois, USA
Distance from station: WSW 89mi, 144km
Updated: Fri, 17-Aug-2018 10:35pm EDT
Partly cloudy
Partly cloudy
 Wind from calm
Wind: Calm
Temperature: 72°F , 22°C
Dew Point: 68°F , 20°C
Humidity: 88%
Barometer: 29.99 inHg , 1015.6 hPa
Clouds: Partly cloudy
Visibility: 7 miles , 11 km
Cloud details: Partly cloudy 12000 ft
2018/08/18 02:35 KOLY 180235Z AUTO 00000KT 7SM SCT120 22/20 A2999 RMK AO2 T02150203
KOKK - Kokomo, Indiana, USA
Distance from station: NNE 92mi, 148km
Updated: Fri, 17-Aug-2018 10:14pm EDT
Partly cloudy
Partly cloudy
 Wind from E
Wind: E 5 mph , 7 km/h
Temperature: 73°F , 23°C
Dew Point: 72°F , 22°C
Humidity: 94%
Barometer: 29.99 inHg , 1015.6 hPa
Clouds: Partly cloudy
Visibility: 10 miles , 16 km
Cloud details: Few Clouds 1100 ft
Partly cloudy 2300 ft
2018/08/18 02:14 KOKK 180214Z AUTO 10004KT 10SM FEW011 SCT023 23/22 A2999 RMK AO2